Time;durP1;ratioP1;P1;durP2;ratioP2;P2;SDS_P1;SDS_P2;PMS_P1;PMS_P2;Temp;Humidity;BMP_temperature;BMP_pressure;BME280_temperature;BME280_humidity;BME280_pressure;Samples;Min_cycle;Max_cycle;Signal;HPM_P1;HPM_P2
2021/10/25 00:01:31;;;;;;;4.60;1.80;;;;;;;3.32;73.16;98592.28;6170887;28;20664;-72
2021/10/25 00:04:34;;;;;;;3.17;2.13;;;;;;;3.24;73.52;98591.72;6169593;28;20210;-74
2021/10/25 00:07:36;;;;;;;5.13;2.40;;;;;;;3.15;74.14;98586.81;6171298;28;20189;-73
2021/10/25 00:10:43;;;;;;;4.73;1.90;;;;;;;3.11;74.28;98586.97;6170710;28;20192;-73
2021/10/25 00:13:45;;;;;;;3.80;1.67;;;;;;;3.07;74.40;98586.25;6169224;28;20257;-72
2021/10/25 00:16:48;;;;;;;2.73;2.10;;;;;;;3.05;74.38;98575.03;6153324;28;20201;-73
2021/10/25 00:19:50;;;;;;;5.67;2.47;;;;;;;2.96;75.00;98581.41;6152710;28;20266;-72
2021/10/25 00:22:52;;;;;;;2.90;2.20;;;;;;;2.90;74.86;98575.53;6170481;28;20335;-73
2021/10/25 00:25:54;;;;;;;2.83;1.77;;;;;;;2.84;74.79;98581.00;6170340;28;20666;-72
2021/10/25 00:28:57;;;;;;;3.63;2.00;;;;;;;2.77;75.13;98580.34;6153575;28;20194;-73
2021/10/25 00:31:59;;;;;;;3.20;1.70;;;;;;;2.70;75.20;98581.44;6158091;28;20663;-72
2021/10/25 00:35:02;;;;;;;4.97;1.97;;;;;;;2.67;75.33;98585.94;6146833;28;20285;-73
2021/10/25 00:38:05;;;;;;;2.87;1.93;;;;;;;2.57;75.64;98581.03;6170428;28;20217;-72
2021/10/25 00:41:08;;;;;;;5.63;2.00;;;;;;;2.53;76.31;98576.81;6152622;28;20210;-72
2021/10/25 00:44:11;;;;;;;5.27;1.90;;;;;;;2.49;76.43;98572.63;6170058;28;20339;-72
2021/10/25 00:47:13;;;;;;;4.07;2.03;;;;;;;2.48;76.10;98580.50;6170025;28;20307;-72
2021/10/25 00:50:15;;;;;;;4.30;2.40;;;;;;;2.47;76.74;98565.78;6169831;28;20571;-73
2021/10/25 00:53:18;;;;;;;6.60;2.30;;;;;;;2.40;76.36;98569.47;6168734;28;20247;-72
2021/10/25 00:56:20;;;;;;;3.57;1.80;;;;;;;2.39;76.70;98575.59;6164665;28;20562;-72
2021/10/25 00:59:22;;;;;;;2.97;2.03;;;;;;;2.38;76.98;98574.75;6152793;28;20733;-73
2021/10/25 01:02:24;;;;;;;5.00;2.20;;;;;;;2.36;77.29;98566.13;6172514;28;20349;-72
2021/10/25 01:05:29;;;;;;;5.83;2.43;;;;;;;2.34;76.98;98567.06;6164868;28;20701;-72
2021/10/25 01:08:36;;;;;;;3.40;1.80;;;;;;;2.30;77.28;98561.09;6170564;28;20281;-73
2021/10/25 01:11:40;;;;;;;5.13;2.70;;;;;;;2.26;76.99;98553.47;6172767;28;20195;-72
2021/10/25 01:14:43;;;;;;;4.33;1.90;;;;;;;2.22;77.65;98553.56;6174710;28;20198;-72
2021/10/25 01:17:45;;;;;;;3.70;2.20;;;;;;;2.17;77.52;98552.88;6172956;28;20720;-72
2021/10/25 01:20:48;;;;;;;4.20;2.33;;;;;;;2.17;77.57;98549.41;6172990;28;20285;-73
2021/10/25 01:23:56;;;;;;;5.80;2.50;;;;;;;2.13;77.91;98543.44;6158160;28;20225;-73
2021/10/25 01:26:58;;;;;;;4.23;2.20;;;;;;;2.12;78.18;98548.69;6173827;28;20279;-72
2021/10/25 01:30:01;;;;;;;3.90;2.03;;;;;;;2.10;78.09;98545.28;6172695;28;20209;-72
2021/10/25 01:33:09;;;;;;;5.27;2.17;;;;;;;2.00;78.05;98539.53;6172159;28;20685;-73
2021/10/25 01:36:12;;;;;;;4.10;1.77;;;;;;;1.99;78.43;98539.59;6172166;28;20577;-73
2021/10/25 01:39:14;;;;;;;4.57;2.10;;;;;;;1.92;78.88;98538.94;6156348;28;20214;-73
2021/10/25 01:42:17;;;;;;;2.67;1.67;;;;;;;1.89;78.49;98531.22;6171671;28;20198;-73
2021/10/25 01:45:19;;;;;;;5.07;2.03;;;;;;;1.86;78.89;98528.72;6172574;28;20681;-73
2021/10/25 01:48:22;;;;;;;4.90;1.70;;;;;;;1.81;78.83;98520.19;6171641;28;20222;-72
2021/10/25 01:51:24;;;;;;;3.47;2.10;;;;;;;1.78;79.16;98517.72;6172400;28;20216;-73
2021/10/25 01:54:27;;;;;;;3.27;2.20;;;;;;;1.76;79.34;98519.50;6172366;28;20221;-73
2021/10/25 01:57:29;;;;;;;4.13;2.37;;;;;;;1.71;79.39;98519.63;6151626;28;20246;-73
2021/10/25 02:00:33;;;;;;;5.20;2.83;;;;;;;1.70;79.98;98520.53;6170854;28;20743;-72
2021/10/25 02:03:37;;;;;;;4.53;1.50;;;;;;;1.70;79.71;98512.72;6171693;28;20333;-73
2021/10/25 02:06:51;;;;;;;13.13;6.07;;;;;;;1.71;79.48;98503.16;6157471;28;20197;-73
2021/10/25 02:09:53;;;;;;;7.60;4.80;;;;;;;1.72;79.54;98504.88;6172992;28;20681;-72
2021/10/25 02:12:56;;;;;;;5.73;3.60;;;;;;;1.72;79.55;98504.88;6155428;28;20202;-73
2021/10/25 02:15:59;;;;;;;4.10;2.77;;;;;;;1.70;80.31;98504.06;6171591;28;20317;-73
2021/10/25 02:19:01;;;;;;;5.20;2.40;;;;;;;1.70;80.03;98502.31;6171076;28;20713;-73
2021/10/25 02:22:11;;;;;;;2.10;1.90;;;;;;;1.64;79.90;98497.31;6172673;28;20432;-73
2021/10/25 02:25:13;;;;;;;4.33;2.27;;;;;;;1.61;80.10;98499.16;6139289;28;20360;-73
2021/10/25 02:28:15;;;;;;;6.57;2.60;;;;;;;1.62;80.41;98493.06;6171417;28;20194;-73
2021/10/25 02:31:22;;;;;;;5.97;2.60;;;;;;;1.58;80.45;98489.72;6161926;28;20212;-73
2021/10/25 02:34:24;;;;;;;4.50;2.27;;;;;;;1.61;80.28;98491.34;6165269;28;20194;-72
2021/10/25 02:37:26;;;;;;;3.37;2.23;;;;;;;1.63;80.21;98497.38;6171307;28;20226;-72
2021/10/25 02:40:31;;;;;;;4.63;2.93;;;;;;;1.64;81.21;98492.13;6170544;28;20202;-72
2021/10/25 02:43:34;;;;;;;5.13;2.50;;;;;;;1.71;81.04;98492.75;6154722;28;20600;-73
2021/10/25 02:46:38;;;;;;;5.47;3.00;;;;;;;1.73;81.02;98491.81;6168911;28;20202;-73
2021/10/25 02:49:41;;;;;;;4.60;2.20;;;;;;;1.76;80.88;98499.53;6161575;28;20241;-70
2021/10/25 02:52:43;;;;;;;5.93;2.70;;;;;;;1.75;80.66;98499.59;6163060;28;20206;-69
2021/10/25 02:55:47;;;;;;;3.77;2.20;;;;;;;1.72;80.91;98500.53;6140341;29;20195;-70
2021/10/25 02:58:50;;;;;;;6.53;2.53;;;;;;;1.70;80.39;98494.50;6145579;29;20210;-69
2021/10/25 03:01:52;;;;;;;6.93;2.37;;;;;;;1.67;80.84;98494.63;6162186;28;20202;-69
2021/10/25 03:04:59;;;;;;;4.77;1.87;;;;;;;1.64;80.84;98486.06;6146907;28;20203;-69
2021/10/25 03:08:02;;;;;;;5.33;2.47;;;;;;;1.59;80.70;98488.81;6162803;28;20290;-70
2021/10/25 03:11:04;;;;;;;4.33;2.37;;;;;;;1.62;80.91;98491.31;6146216;28;20191;-69
2021/10/25 03:14:06;;;;;;;3.43;2.17;;;;;;;1.62;80.79;98498.25;6162284;28;20551;-70
2021/10/25 03:17:24;;;;;;;5.87;2.50;;;;;;;1.58;80.69;98491.47;6146001;28;20199;-69
2021/10/25 03:20:41;;;;;;;4.47;2.30;;;;;;;1.55;81.32;98495.00;6162360;28;20621;-69
2021/10/25 03:23:44;;;;;;;4.57;2.23;;;;;;;1.55;81.24;98491.56;6161346;28;20222;-70
2021/10/25 03:26:47;;;;;;;6.40;2.20;;;;;;;1.54;81.36;98495.06;6146422;29;20203;-70
2021/10/25 03:29:49;;;;;;;3.23;2.13;;;;;;;1.58;81.43;98496.66;6145976;29;20233;-69
2021/10/25 03:32:52;;;;;;;3.30;2.20;;;;;;;1.63;81.23;98497.38;6156418;28;20211;-71
2021/10/25 03:36:17;;;;;;;4.03;2.07;;;;;;;1.72;81.57;98486.66;6136221;29;20663;-69
2021/10/25 03:39:24;;;;;;;3.70;2.30;;;;;;;1.76;81.46;98494.34;6161594;28;20585;-70
2021/10/25 03:42:30;;;;;;;3.37;1.60;;;;;;;1.76;80.98;98490.88;6145533;28;20199;-70
2021/10/25 03:45:37;;;;;;;5.23;2.47;;;;;;;1.75;80.87;98491.78;6147413;28;20195;-70
2021/10/25 03:48:49;;;;;;;5.67;2.60;;;;;;;1.73;80.89;98490.97;6153268;28;20218;-69
2021/10/25 03:51:52;;;;;;;4.30;2.50;;;;;;;1.70;81.13;98480.66;6169520;28;20562;-69
2021/10/25 03:55:13;;;;;;;3.63;2.03;;;;;;;1.65;81.05;98486.00;6169142;28;20282;-69
2021/10/25 04:26:28;;;;;;;2.70;1.93;;;;;;;1.38;80.56;98486.88;6153046;28;20198;-69
2021/10/25 04:29:31;;;;;;;4.67;2.00;;;;;;;1.34;81.20;98483.50;6153283;28;20194;-69
2021/10/25 04:32:33;;;;;;;5.63;1.63;;;;;;;1.33;80.92;98493.97;6148182;28;20208;-70
2021/10/25 04:35:39;;;;;;;5.47;2.20;;;;;;;1.30;81.32;98494.06;6152648;28;20241;-70
2021/10/25 04:38:53;;;;;;;3.80;2.10;;;;;;;1.28;80.75;98493.25;6173333;28;20217;-70
2021/10/25 04:41:55;;;;;;;3.30;2.10;;;;;;;1.27;81.81;98481.16;6173374;28;20205;-71
2021/10/25 04:44:58;;;;;;;3.43;1.90;;;;;;;1.28;81.76;98488.91;6174733;28;20276;-70
2021/10/25 04:48:01;;;;;;;3.73;1.73;;;;;;;1.29;81.52;98485.41;6174804;28;20229;-70
2021/10/25 04:51:21;;;;;;;4.17;2.30;;;;;;;1.33;81.81;98489.59;6175034;28;20678;-69
2021/10/25 04:54:44;;;;;;;3.97;2.00;;;;;;;1.34;81.27;98493.06;6159696;28;20337;-69
2021/10/25 04:57:46;;;;;;;3.63;2.10;;;;;;;1.36;81.01;98492.13;6141052;28;20564;-70
2021/10/25 05:00:48;;;;;;;6.83;1.93;;;;;;;1.35;81.32;98486.97;6157133;28;20201;-69
2021/10/25 05:03:51;;;;;;;4.90;2.20;;;;;;;1.42;81.36;98480.66;6173269;28;20281;-69
2021/10/25 05:06:53;;;;;;;3.20;2.10;;;;;;;1.42;81.61;98480.66;6172519;28;20264;-70
2021/10/25 05:09:56;;;;;;;7.13;2.60;;;;;;;1.47;80.92;98478.78;6156547;28;20194;-70
2021/10/25 05:13:00;;;;;;;6.30;2.17;;;;;;;1.54;80.79;98479.44;6172966;28;20194;-70
2021/10/25 05:16:02;;;;;;;4.93;2.47;;;;;;;1.59;80.70;98478.41;6172615;28;20202;-70
2021/10/25 05:19:04;;;;;;;3.93;2.37;;;;;;;1.66;81.08;98481.66;6172899;28;20304;-70
2021/10/25 05:22:07;;;;;;;4.67;2.20;;;;;;;1.69;80.78;98482.44;6172372;28;20280;-70
2021/10/25 05:25:11;;;;;;;5.07;2.03;;;;;;;1.73;81.06;98475.34;6172861;28;20203;-69
2021/10/25 05:28:13;;;;;;;4.97;2.30;;;;;;;1.73;80.85;98483.16;6172628;28;20201;-69
2021/10/25 05:31:16;;;;;;;4.50;1.83;;;;;;;1.69;80.85;98472.03;6162633;28;20202;-70
2021/10/25 05:34:19;;;;;;;3.57;2.37;;;;;;;1.69;80.68;98479.81;6154658;28;20194;-70
2021/10/25 05:37:21;;;;;;;5.87;1.77;;;;;;;1.69;80.58;98481.56;6156052;28;20232;-70
2021/10/25 05:40:23;;;;;;;3.83;1.80;;;;;;;1.70;80.43;98480.66;6172397;28;20217;-70
2021/10/25 05:43:31;;;;;;;5.13;1.87;;;;;;;1.68;80.07;98482.47;6172566;28;20617;-70
2021/10/25 05:46:33;;;;;;;4.50;2.07;;;;;;;1.66;80.38;98490.31;6171341;28;20244;-70
2021/10/25 05:49:36;;;;;;;3.53;2.03;;;;;;;1.66;80.00;98492.06;6172384;28;20526;-70
2021/10/25 05:52:38;;;;;;;5.50;2.10;;;;;;;1.62;80.02;98488.72;6171645;28;20673;-69
2021/10/25 05:55:42;;;;;;;3.93;2.00;;;;;;;1.57;80.33;98490.63;6167278;28;20198;-70
2021/10/25 05:58:44;;;;;;;4.87;2.10;;;;;;;1.58;80.56;98504.47;6171782;28;20214;-70
2021/10/25 06:01:57;;;;;;;5.03;1.80;;;;;;;1.57;80.53;98506.22;6171275;28;20206;-70
2021/10/25 06:05:01;;;;;;;2.97;1.67;;;;;;;1.56;80.00;98503.66;6171519;28;20333;-69
2021/10/25 06:08:06;;;;;;;4.27;1.87;;;;;;;1.56;80.19;98498.47;6171157;28;20229;-69
2021/10/25 06:11:11;;;;;;;4.50;1.73;;;;;;;1.56;80.71;98501.06;6155520;28;20289;-70
2021/10/25 06:14:15;;;;;;;4.80;1.73;;;;;;;1.55;80.25;98505.41;6170867;28;20252;-70
2021/10/25 06:20:44;;;;;;;2.83;1.63;;;;;;;1.57;80.80;98510.56;6154964;28;20225;-69
2021/10/25 06:23:54;;;;;;;2.27;1.77;;;;;;;1.58;80.16;98502.72;6170924;28;20194;-69
2021/10/25 06:27:17;;;;;;;13.80;6.60;;;;;;;1.59;80.60;98508.78;6157303;28;20357;-66
2021/10/25 06:30:21;;;;;;;18.70;10.17;;;;;;;1.58;80.34;98517.47;6152735;28;20198;-66
2021/10/25 06:33:27;;;;;;;24.50;9.37;;;;;;;1.58;80.88;98509.69;6171228;28;20317;-68
2021/10/25 06:36:55;;;;;;;9.40;3.90;;;;;;;1.55;80.67;98508.00;6170740;28;20229;-67
2021/10/25 06:40:04;;;;;;;7.53;3.57;;;;;;;1.57;80.24;98511.44;6168336;28;20285;-66
2021/10/25 06:43:10;;;;;;;6.00;3.27;;;;;;;1.60;80.50;98524.31;6170830;28;20198;-66
2021/10/25 06:46:17;;;;;;;3.70;2.50;;;;;;;1.61;80.58;98528.63;6168833;28;20576;-70
2021/10/25 06:49:19;;;;;;;6.13;2.60;;;;;;;1.63;80.31;98520.78;6171086;28;20222;-69
2021/10/25 06:52:21;;;;;;;6.13;2.50;;;;;;;1.65;80.48;98526.78;6153148;28;20209;-70
2021/10/25 06:55:24;;;;;;;3.90;1.97;;;;;;;1.70;80.32;98524.88;6166931;28;20194;-70
2021/10/25 06:58:33;;;;;;;4.37;2.10;;;;;;;1.76;80.10;98522.09;6150992;28;20378;-70
2021/10/25 07:01:36;;;;;;;6.27;2.53;;;;;;;1.86;80.43;98526.13;6154571;28;20754;-70
2021/10/25 07:04:39;;;;;;;3.37;2.00;;;;;;;1.95;80.42;98530.16;6153477;28;20213;-69
2021/10/25 07:07:41;;;;;;;2.77;1.97;;;;;;;2.02;80.28;98524.72;6153984;28;20201;-69
2021/10/25 07:10:43;;;;;;;3.87;2.10;;;;;;;2.10;80.03;98538.31;6153970;28;20213;-70
2021/10/25 07:13:53;;;;;;;5.03;2.40;;;;;;;2.19;80.33;98530.25;6154852;28;20597;-69
2021/10/25 07:17:18;;;;;;;3.90;1.90;;;;;;;2.29;80.11;98529.94;6153962;28;20198;-69
2021/10/25 08:11:06;;;;;;;3.30;2.03;;;;;;;5.68;68.76;98526.63;6168757;28;20200;-70
2021/10/25 08:14:15;;;;;;;9.80;1.87;;;;;;;6.25;63.92;98515.13;6169871;28;20208;-70
2021/10/25 08:17:22;;;;;;;4.27;1.63;;;;;;;6.65;64.05;98513.97;6168754;28;20201;-70
2021/10/25 08:20:25;;;;;;;3.97;1.60;;;;;;;6.98;63.36;98511.38;6168496;28;20211;-70
2021/10/25 08:23:28;;;;;;;2.50;1.53;;;;;;;7.18;61.93;98512.97;6168915;28;20256;-70
2021/10/25 08:26:34;;;;;;;2.37;1.60;;;;;;;7.43;59.86;98509.84;6170030;28;20193;-69
2021/10/25 08:29:40;;;;;;;5.63;1.83;;;;;;;7.70;58.92;98513.56;6168664;28;20236;-70
2021/10/25 08:33:04;;;;;;;4.27;1.67;;;;;;;7.93;59.69;98509.66;6152378;28;20206;-70
2021/10/25 08:36:14;;;;;;;2.73;1.77;;;;;;;8.22;57.90;98510.63;6167933;28;20194;-72
2021/10/25 08:39:47;;;;;;;4.67;1.53;;;;;;;8.41;58.38;98501.63;6170674;28;20212;-69
2021/10/25 08:42:52;;;;;;;4.37;1.50;;;;;;;8.50;58.91;98498.47;6168168;28;20287;-69
2021/10/25 08:45:57;;;;;;;1.93;1.60;;;;;;;8.63;58.37;98500.38;6168454;28;20739;-69
2021/10/25 08:49:00;;;;;;;6.07;1.67;;;;;;;8.86;56.12;98494.59;6152386;28;20530;-69
2021/10/25 08:52:03;;;;;;;2.63;1.63;;;;;;;9.08;54.14;98494.13;6168169;28;20202;-69
2021/10/25 08:55:12;;;;;;;4.43;1.63;;;;;;;9.42;51.59;98492.88;6152695;28;20175;-70
2021/10/25 08:58:14;;;;;;;3.57;1.60;;;;;;;9.56;50.21;98493.72;6168143;28;20280;-68
2021/10/25 09:01:28;;;;;;;3.07;1.70;;;;;;;9.92;51.20;98482.59;6168666;28;20708;-70
2021/10/25 09:04:56;;;;;;;6.40;2.13;;;;;;;10.11;47.84;98484.03;6168544;28;20204;-69
2021/10/25 09:07:58;;;;;;;3.83;1.50;;;;;;;10.30;48.33;98484.53;6168484;28;20553;-69
2021/10/25 09:11:10;;;;;;;2.67;1.37;;;;;;;10.69;47.50;98487.16;6168435;28;20194;-69
2021/10/25 09:14:32;;;;;;;4.47;1.40;;;;;;;10.91;47.16;98477.75;6151907;28;20213;-69
2021/10/25 09:17:40;;;;;;;2.43;1.20;;;;;;;11.24;47.89;98485.16;6169721;28;20730;-70
2021/10/25 09:20:58;;;;;;;2.80;1.77;;;;;;;11.45;46.11;98481.00;6169240;28;20796;-69
2021/10/25 09:24:03;;;;;;;9.17;1.90;;;;;;;11.36;44.75;98481.66;6173726;28;20677;-69
2021/10/25 09:27:09;;;;;;;5.47;1.40;;;;;;;11.54;44.61;98471.56;6156441;28;20268;-69
2021/10/25 09:30:20;;;;;;;5.50;2.00;;;;;;;11.57;44.78;98477.50;6170927;28;20195;-69
2021/10/25 09:33:24;;;;;;;1.37;1.27;;;;;;;11.76;44.51;98479.69;6150787;28;20199;-69
2021/10/25 09:36:51;;;;;;;5.87;2.07;;;;;;;11.93;42.69;98481.09;6171873;28;20214;-69
2021/10/25 09:39:59;;;;;;;3.20;1.47;;;;;;;12.10;42.66;98475.41;6148195;29;20358;-69
2021/10/25 09:43:17;;;;;;;6.07;1.60;;;;;;;12.27;42.29;98474.16;6172941;28;20266;-69
2021/10/25 09:49:57;;;;;;;3.07;1.60;;;;;;;12.35;40.94;98467.34;6162538;28;20190;-69
2021/10/25 09:53:02;;;;;;;4.43;1.60;;;;;;;12.49;41.67;98463.63;6171798;28;20229;-69
2021/10/25 09:56:09;;;;;;;3.17;1.60;;;;;;;13.03;41.80;98461.22;6163929;28;20208;-68
2021/10/25 09:59:54;;;;;;;4.30;1.80;;;;;;;13.06;39.14;98466.28;6167423;28;20606;-70
2021/10/25 10:03:15;;;;;;;3.70;1.60;;;;;;;12.99;40.57;98467.72;6172526;28;20208;-70
2021/10/25 10:06:47;;;;;;;2.27;1.57;;;;;;;13.17;40.38;98460.19;6172455;28;20258;-70
2021/10/25 10:09:49;;;;;;;4.17;1.60;;;;;;;12.92;39.28;98466.50;6155813;28;20196;-70
2021/10/25 10:12:54;;;;;;;3.30;1.50;;;;;;;12.88;38.94;98444.69;6170947;28;20236;-70
2021/10/25 10:16:05;;;;;;;5.03;1.70;;;;;;;13.02;39.63;98454.22;6171541;28;20282;-69
2021/10/25 10:19:14;;;;;;;6.00;1.50;;;;;;;13.27;38.66;98440.78;6170949;28;20221;-69
2021/10/25 10:22:46;;;;;;;4.67;1.63;;;;;;;13.04;38.35;98454.97;6164367;28;20205;-69
2021/10/25 10:26:00;;;;;;;4.20;1.93;;;;;;;13.14;37.90;98455.13;6170689;28;20755;-70
2021/10/25 10:29:12;;;;;;;2.93;1.50;;;;;;;13.27;38.77;98461.16;6171067;28;20282;-69
2021/10/25 10:32:32;;;;;;;2.50;1.40;;;;;;;13.63;37.58;98452.06;6157394;28;20267;-70
2021/10/25 10:35:55;;;;;;;4.30;2.00;;;;;;;13.73;35.97;98438.91;6168637;28;20660;-69
2021/10/25 10:39:16;;;;;;;5.10;1.70;;;;;;;13.49;36.31;98455.81;6171326;28;20604;-69
2021/10/25 10:42:26;;;;;;;4.23;2.00;;;;;;;13.40;36.63;98464.50;6171397;28;20203;-69
2021/10/25 10:45:32;;;;;;;1.83;1.30;;;;;;;13.50;36.87;98446.06;6172138;28;20247;-69
2021/10/25 10:48:37;;;;;;;2.73;1.93;;;;;;;13.78;35.47;98439.38;6171387;28;20316;-71
2021/10/25 10:51:39;;;;;;;3.60;1.53;;;;;;;13.95;36.57;98428.25;6154980;28;20703;-69
2021/10/25 10:54:53;;;;;;;3.03;1.30;;;;;;;14.01;35.64;98436.53;6171448;28;20204;-69
2021/10/25 11:01:04;;;;;;;3.20;1.73;;;;;;;14.02;36.15;98424.09;6171749;28;20222;-70
2021/10/25 11:04:08;;;;;;;4.30;2.00;;;;;;;14.14;35.59;98416.94;6170944;28;20208;-70
2021/10/25 11:07:10;;;;;;;3.03;1.40;;;;;;;14.14;35.72;98420.44;6171576;28;20295;-69
2021/10/25 11:10:12;;;;;;;4.13;1.77;;;;;;;14.37;35.41;98406.06;6171105;28;20190;-69
2021/10/25 11:13:20;;;;;;;3.33;1.90;;;;;;;14.19;35.34;98406.78;6171412;28;20196;-69
2021/10/25 11:19:30;;;;;;;4.40;1.80;;;;;;;14.07;34.77;98398.03;6170888;28;20206;-70
2021/10/25 11:22:34;;;;;;;3.73;1.77;;;;;;;14.35;34.80;98405.38;6171183;28;20709;-69
2021/10/25 11:25:43;;;;;;;5.47;1.90;;;;;;;14.20;34.49;98387.22;6170676;28;20677;-71
2021/10/25 11:29:02;;;;;;;2.63;1.67;;;;;;;14.66;34.85;98387.72;6169992;28;20206;-69
2021/10/25 11:32:10;;;;;;;2.43;1.70;;;;;;;14.86;33.44;98383.34;6166674;28;20684;-69
2021/10/25 11:35:14;;;;;;;4.60;1.97;;;;;;;14.70;33.58;98380.31;6170612;28;20206;-69
2021/10/25 11:38:17;;;;;;;1.50;1.40;;;;;;;14.65;33.15;98380.72;6171025;28;20811;-70
2021/10/25 11:41:19;;;;;;;4.80;1.60;;;;;;;14.87;33.65;98384.19;6170285;28;20217;-69
2021/10/25 11:44:22;;;;;;;3.67;1.50;;;;;;;14.86;33.45;98371.88;6170197;28;20197;-69
2021/10/25 11:47:27;;;;;;;1.57;1.27;;;;;;;15.11;33.02;98369.59;6153066;28;20296;-68
2021/10/25 11:50:32;;;;;;;3.70;1.60;;;;;;;15.31;31.66;98362.50;6170484;28;20194;-69
2021/10/25 11:53:35;;;;;;;2.27;1.40;;;;;;;15.34;31.28;98359.59;6169550;28;20662;-69
2021/10/25 11:56:38;;;;;;;2.20;1.23;;;;;;;15.63;31.12;98362.34;6156936;28;20197;-69
2021/10/25 11:59:40;;;;;;;2.50;1.57;;;;;;;15.61;30.29;98350.97;6159336;28;20597;-68
2021/10/25 12:02:44;;;;;;;2.70;1.30;;;;;;;15.47;30.65;98354.03;6169847;28;20206;-69
2021/10/25 12:05:50;;;;;;;3.80;1.60;;;;;;;15.42;30.38;98348.25;6168677;28;20797;-68
2021/10/25 12:09:02;;;;;;;4.40;1.60;;;;;;;15.48;30.57;98340.56;6170287;28;20198;-68
2021/10/25 12:12:13;;;;;;;2.77;1.30;;;;;;;15.84;30.51;98336.44;6170400;28;20653;-69
2021/10/25 12:15:18;;;;;;;7.93;1.87;;;;;;;16.05;29.90;98332.78;6170191;28;20178;-69
2021/10/25 12:18:21;;;;;;;5.97;1.90;;;;;;;15.94;29.31;98332.94;6152480;28;20284;-68
2021/10/25 12:21:34;;;;;;;2.13;1.70;;;;;;;15.08;29.79;98342.41;6170195;28;20225;-69
2021/10/25 12:24:43;;;;;;;4.73;1.70;;;;;;;14.77;30.17;98338.97;6152657;28;20220;-70
2021/10/25 12:27:45;;;;;;;2.67;1.47;;;;;;;15.11;30.59;98334.19;6170335;28;20228;-70
2021/10/25 12:30:50;;;;;;;2.87;1.43;;;;;;;14.96;30.66;98328.41;6163939;28;20191;-69
2021/10/25 12:34:01;;;;;;;2.27;1.37;;;;;;;15.22;30.65;98325.25;6157754;28;20202;-68
2021/10/25 12:37:04;;;;;;;6.93;1.60;;;;;;;15.14;30.56;98326.78;6155853;28;20240;-69
2021/10/25 12:40:18;;;;;;;2.80;1.50;;;;;;;15.59;30.48;98321.00;6169641;28;20241;-69
2021/10/25 12:43:21;;;;;;;2.93;1.40;;;;;;;15.98;30.32;98321.84;6152802;28;20190;-69
2021/10/25 12:46:32;;;;;;;3.17;1.57;;;;;;;16.46;29.28;98321.78;6169518;28;20714;-68
2021/10/25 12:49:35;;;;;;;3.53;1.63;;;;;;;16.33;29.78;98315.09;6170116;28;20236;-69
2021/10/25 12:52:39;;;;;;;2.27;1.20;;;;;;;16.56;28.90;98301.28;6169111;28;20224;-69
2021/10/25 12:55:53;;;;;;;3.73;1.40;;;;;;;16.44;29.08;98304.25;6163794;28;20199;-69
2021/10/25 12:58:59;;;;;;;3.37;1.63;;;;;;;15.65;29.70;98308.97;6169403;28;20605;-68
2021/10/25 13:02:02;;;;;;;2.67;1.30;;;;;;;15.25;30.71;98296.59;6157101;28;20214;-69
2021/10/25 13:05:11;;;;;;;4.17;1.53;;;;;;;16.27;30.03;98302.34;6156709;28;20655;-69
2021/10/25 13:08:14;;;;;;;4.50;1.83;;;;;;;16.48;28.94;98300.31;6173945;28;20202;-69
2021/10/25 13:11:16;;;;;;;4.27;1.60;;;;;;;16.55;29.15;98294.28;6174131;28;20585;-69
2021/10/25 13:14:18;;;;;;;1.53;1.30;;;;;;;18.14;27.66;98295.53;6174063;28;20567;-69
2021/10/25 13:17:20;;;;;;;2.53;1.50;;;;;;;19.36;25.36;98293.50;6173793;28;20194;-69
2021/10/25 13:20:24;;;;;;;1.90;1.47;;;;;;;19.89;25.38;98282.38;6156800;28;20210;-69
2021/10/25 13:23:26;;;;;;;3.40;1.70;;;;;;;19.38;25.28;98292.31;6172268;28;20210;-68
2021/10/25 13:26:30;;;;;;;3.33;1.80;;;;;;;17.22;27.44;98298.47;6173737;28;20612;-69
2021/10/25 13:29:32;;;;;;;3.27;1.80;;;;;;;16.73;28.18;98286.38;6173822;28;20193;-69
2021/10/25 13:32:35;;;;;;;3.07;1.67;;;;;;;15.21;30.57;98291.66;6164490;28;20202;-69
2021/10/25 13:35:37;;;;;;;3.70;1.50;;;;;;;14.47;32.45;98281.38;6171654;28;20686;-69
2021/10/25 13:38:41;;;;;;;5.00;1.57;;;;;;;13.96;33.10;98292.78;6171728;28;20218;-69
2021/10/25 13:41:44;;;;;;;2.67;1.70;;;;;;;13.52;34.49;98290.31;6173547;28;20213;-69
2021/10/25 13:44:46;;;;;;;2.07;1.47;;;;;;;13.35;34.57;98290.88;6173434;28;20609;-69
2021/10/25 13:47:49;;;;;;;2.47;1.90;;;;;;;13.04;35.25;98284.53;6172704;28;20259;-69
2021/10/25 13:50:51;;;;;;;2.87;1.67;;;;;;;12.86;35.21;98282.41;6173292;28;20593;-69
2021/10/25 13:53:53;;;;;;;2.63;1.50;;;;;;;12.76;36.08;98283.25;6173031;28;20222;-68
2021/10/25 13:56:57;;;;;;;3.33;1.47;;;;;;;12.58;36.64;98282.88;6171866;28;20229;-68
2021/10/25 13:59:59;;;;;;;2.57;1.70;;;;;;;12.46;36.58;98273.28;6172878;28;20219;-70
2021/10/25 14:03:01;;;;;;;3.53;1.70;;;;;;;12.40;37.54;98274.59;6172891;28;20190;-68
2021/10/25 14:06:09;;;;;;;1.73;1.57;;;;;;;12.35;37.95;98265.34;6172530;28;20768;-69
2021/10/25 14:09:12;;;;;;;1.67;1.57;;;;;;;12.16;37.43;98261.47;6170922;28;20209;-69
2021/10/25 14:12:18;;;;;;;2.37;1.83;;;;;;;12.01;38.17;98267.09;6171767;28;20279;-69
2021/10/25 14:15:45;;;;;;;2.90;1.67;;;;;;;11.94;38.19;98264.06;6172667;28;20195;-69
2021/10/25 14:18:48;;;;;;;2.73;1.70;;;;;;;11.81;39.21;98261.50;6172932;28;20259;-69
2021/10/25 14:21:51;;;;;;;4.70;1.70;;;;;;;11.66;39.03;98260.03;6172646;28;20680;-69
2021/10/25 14:24:54;;;;;;;2.13;1.60;;;;;;;11.62;38.89;98255.91;6170659;28;20229;-68
2021/10/25 14:27:57;;;;;;;2.90;1.73;;;;;;;11.66;38.90;98265.31;6170518;28;20204;-69
2021/10/25 14:31:00;;;;;;;2.17;1.63;;;;;;;11.60;39.10;98260.47;6170398;28;21634;-69
2021/10/25 14:34:03;;;;;;;3.73;1.57;;;;;;;11.59;39.84;98264.06;6171845;28;20195;-69
2021/10/25 14:37:08;;;;;;;3.53;1.80;;;;;;;11.58;39.80;98257.09;6169492;28;20216;-69
2021/10/25 14:40:13;;;;;;;5.43;2.00;;;;;;;11.59;40.73;98253.47;6170645;28;20706;-69
2021/10/25 14:43:21;;;;;;;3.37;1.93;;;;;;;11.52;41.18;98251.41;6171284;28;20192;-69
2021/10/25 14:56:09;;;;;;;4.83;1.97;;;;;;;11.06;42.41;98242.47;6161457;28;20290;-68
2021/10/25 14:59:11;;;;;;;3.63;2.00;;;;;;;11.02;42.25;98245.44;6145853;28;20210;-69
2021/10/25 15:02:14;;;;;;;5.70;2.20;;;;;;;10.86;43.15;98245.72;6171374;28;20695;-69
2021/10/25 15:05:16;;;;;;;3.87;1.90;;;;;;;10.76;43.51;98247.34;6154075;28;20217;-69
2021/10/25 15:08:19;;;;;;;3.47;2.13;;;;;;;10.67;43.44;98240.94;6153979;28;20270;-69
2021/10/25 15:11:21;;;;;;;4.87;1.87;;;;;;;10.62;43.51;98239.56;6170300;28;20209;-68
2021/10/25 15:14:23;;;;;;;3.90;1.90;;;;;;;10.53;43.62;98234.94;6169615;28;20394;-69
2021/10/25 15:17:25;;;;;;;2.83;1.77;;;;;;;10.46;43.77;98241.59;6169914;28;20194;-69
2021/10/25 15:20:27;;;;;;;4.03;2.07;;;;;;;10.34;44.76;98228.31;6170309;28;20210;-70
2021/10/25 15:23:29;;;;;;;2.37;1.80;;;;;;;10.25;45.38;98231.63;6170926;28;20563;-69
2021/10/25 15:26:32;;;;;;;3.20;2.03;;;;;;;10.15;45.49;98230.53;6171131;28;20201;-69
2021/10/25 15:29:34;;;;;;;3.57;2.10;;;;;;;10.00;46.29;98229.78;6154126;28;20194;-69
2021/10/25 15:32:37;;;;;;;3.90;1.90;;;;;;;9.89;46.79;98227.06;6155790;28;20197;-70
2021/10/25 15:35:40;;;;;;;5.97;1.80;;;;;;;9.81;46.17;98232.00;6170626;28;20190;-68
2021/10/25 15:38:44;;;;;;;8.83;1.90;;;;;;;9.71;47.92;98227.47;6170763;28;20578;-68
2021/10/25 15:41:47;;;;;;;1.87;1.60;;;;;;;9.60;47.07;98226.41;6170542;28;20257;-69
2021/10/25 15:44:50;;;;;;;2.73;1.87;;;;;;;9.54;47.22;98226.84;6169345;28;20673;-68
2021/10/25 15:47:53;;;;;;;2.47;1.67;;;;;;;9.48;47.43;98221.97;6170814;28;20607;-68
2021/10/25 15:50:56;;;;;;;2.87;1.80;;;;;;;9.35;48.52;98234.28;6152167;28;20205;-69
2021/10/25 15:53:58;;;;;;;3.80;1.80;;;;;;;9.26;47.78;98221.72;6170375;28;20340;-68
2021/10/25 15:57:01;;;;;;;3.13;1.90;;;;;;;9.16;48.64;98218.84;6163041;28;20193;-68
2021/10/25 16:00:08;;;;;;;2.30;1.80;;;;;;;9.12;49.11;98217.34;6170324;28;20190;-68
2021/10/25 16:03:16;;;;;;;4.37;2.00;;;;;;;9.05;47.90;98223.13;6171501;28;20527;-69
2021/10/25 16:06:18;;;;;;;2.63;1.80;;;;;;;9.01;49.09;98225.13;6169923;28;20224;-69
2021/10/25 16:09:20;;;;;;;3.20;1.73;;;;;;;8.96;48.25;98236.91;6169511;28;20221;-69
2021/10/25 16:12:22;;;;;;;3.80;1.60;;;;;;;8.86;49.03;98242.75;6170537;28;20198;-69
2021/10/25 16:15:25;;;;;;;3.03;1.67;;;;;;;8.73;49.74;98235.72;6170288;28;20202;-69
2021/10/25 16:18:27;;;;;;;3.50;2.20;;;;;;;8.63;49.40;98240.75;6170450;28;20672;-69
2021/10/25 16:21:30;;;;;;;2.20;1.70;;;;;;;8.62;49.89;98235.56;6170279;28;20709;-69
2021/10/25 16:24:32;;;;;;;4.10;1.63;;;;;;;8.57;49.98;98242.94;6170166;28;20204;-69